createdAt,value
2018-02-08T00:01:54.326Z,81.64
2018-02-08T00:04:23.394Z,81.43
2018-02-08T00:06:51.710Z,81.05
2018-02-08T00:09:19.976Z,80.79
2018-02-08T00:11:49.040Z,81.11
2018-02-08T00:14:17.381Z,80.73
2018-02-08T00:16:45.665Z,80.42
2018-02-08T00:19:13.986Z,80.43
2018-02-08T00:21:42.303Z,80.26
2018-02-08T00:24:10.881Z,81.35
2018-02-08T00:26:39.223Z,81.53
2018-02-08T00:29:07.491Z,81.56
2018-02-08T00:31:35.793Z,81.77
2018-02-08T00:34:04.867Z,80.87
2018-02-08T00:36:33.164Z,80.68
2018-02-08T00:39:01.448Z,80.34
2018-02-08T00:41:30.539Z,79.85
2018-02-08T00:43:58.866Z,79.82
2018-02-08T00:46:28.503Z,80.13
2018-02-08T00:48:56.799Z,80.23
2018-02-08T00:51:25.109Z,80.29
2018-02-08T00:53:53.404Z,81.00
2018-02-08T00:56:21.968Z,81.01
2018-02-08T00:58:51.146Z,81.63
2018-02-08T01:01:20.218Z,82.38
2018-02-08T01:03:48.509Z,82.18
2018-02-08T01:06:16.823Z,82.64
2018-02-08T01:08:45.884Z,82.50
2018-02-08T01:11:14.177Z,81.88
2018-02-08T01:13:43.240Z,81.75
2018-02-08T01:16:11.561Z,81.95
2018-02-08T01:18:40.637Z,82.10
2018-02-08T01:21:08.918Z,82.08
2018-02-08T01:23:37.240Z,82.20
2018-02-08T01:26:05.538Z,82.15
2018-02-08T01:28:33.843Z,82.01
2018-02-08T01:31:02.170Z,82.34
2018-02-08T01:33:30.467Z,82.30
2018-02-08T01:35:58.765Z,81.98
2018-02-08T01:38:27.053Z,81.85
2018-02-08T01:40:55.612Z,82.30
2018-02-08T01:43:23.897Z,83.15
2018-02-08T01:45:52.191Z,83.44
2018-02-08T01:48:20.484Z,83.26
2018-02-08T01:50:49.552Z,83.16
2018-02-08T01:53:17.845Z,82.90
2018-02-08T01:55:46.145Z,83.16
2018-02-08T01:58:15.196Z,83.76
2018-02-08T02:00:43.504Z,83.54
2018-02-08T02:03:11.814Z,83.32
2018-02-08T02:05:40.888Z,83.25
2018-02-08T02:08:09.187Z,83.48
2018-02-08T02:10:37.491Z,83.69
2018-02-08T02:13:05.759Z,83.59
2018-02-08T02:15:34.103Z,83.50
2018-02-08T02:18:02.395Z,83.26
2018-02-08T02:20:31.749Z,83.50
2018-02-08T02:23:00.022Z,83.63
2018-02-08T02:25:28.321Z,83.39
2018-02-08T02:27:56.862Z,82.98
2018-02-08T02:30:25.148Z,82.75
2018-02-08T02:32:53.426Z,82.23
2018-02-08T02:35:21.776Z,82.96
2018-02-08T02:37:50.059Z,83.85
2018-02-08T02:40:18.384Z,84.22
2018-02-08T02:42:46.692Z,83.86
2018-02-08T02:45:14.959Z,83.89
2018-02-08T02:47:43.268Z,83.57
2018-02-08T02:50:12.321Z,83.52
2018-02-08T02:52:40.614Z,83.67
2018-02-08T02:55:09.706Z,84.14
2018-02-08T02:57:37.994Z,83.56
2018-02-08T03:00:06.300Z,83.14
2018-02-08T03:02:34.580Z,83.41
2018-02-08T03:05:02.856Z,83.17
2018-02-08T03:07:31.138Z,83.67
2018-02-08T03:09:59.431Z,84.18
2018-02-08T03:12:27.718Z,84.18
2018-02-08T03:14:56.034Z,84.16
2018-02-08T03:17:24.330Z,84.38
2018-02-08T03:19:53.366Z,84.76
2018-02-08T03:22:21.663Z,84.78
2018-02-08T03:24:49.966Z,84.90
2018-02-08T03:27:18.257Z,84.48
2018-02-08T03:29:47.363Z,84.70
2018-02-08T03:32:16.416Z,84.84
2018-02-08T03:34:44.706Z,84.57
2018-02-08T03:37:13.003Z,84.86
2018-02-08T03:39:42.045Z,84.57
2018-02-08T03:42:10.318Z,84.63
2018-02-08T03:44:38.625Z,84.56
2018-02-08T03:47:06.913Z,84.88
2018-02-08T03:49:35.220Z,85.46
2018-02-08T03:52:04.573Z,85.73
2018-02-08T03:54:32.844Z,85.48
2018-02-08T03:57:01.134Z,85.09
2018-02-08T03:59:29.449Z,85.21
2018-02-08T04:01:58.513Z,85.62
2018-02-08T04:04:26.797Z,85.93
2018-02-08T04:06:55.113Z,86.01
2018-02-08T04:09:24.173Z,85.28
2018-02-08T04:11:52.467Z,85.39
2018-02-08T04:14:20.773Z,85.48
2018-02-08T04:16:49.073Z,85.21
2018-02-08T04:19:17.358Z,84.91
2018-02-08T04:21:45.672Z,85.02
2018-02-08T04:24:13.976Z,84.75
2018-02-08T04:26:43.028Z,84.72
2018-02-08T04:29:11.331Z,84.53
2018-02-08T04:31:39.633Z,84.18
2018-02-08T04:34:08.699Z,83.98
2018-02-08T04:36:36.988Z,83.94
2018-02-08T04:39:22.862Z,83.78
2018-02-08T04:42:08.636Z,83.66
2018-02-08T04:44:54.501Z,83.57
2018-02-08T04:47:28.481Z,84.59
2018-02-08T04:49:57.548Z,84.31
2018-02-08T04:52:25.823Z,84.16
2018-02-08T04:54:54.136Z,84.50
2018-02-08T04:57:23.194Z,84.79
2018-02-08T04:59:51.480Z,84.57
2018-02-08T05:02:19.788Z,84.55
2018-02-08T05:04:48.833Z,84.37
2018-02-08T05:07:17.103Z,85.06
2018-02-08T05:09:45.409Z,84.60
2018-02-08T05:12:13.698Z,84.19
2018-02-08T05:14:42.288Z,84.47
2018-02-08T05:17:10.574Z,84.29
2018-02-08T05:19:39.621Z,83.98
2018-02-08T05:22:08.195Z,83.79
2018-02-08T05:24:36.477Z,83.62
2018-02-08T05:27:04.750Z,83.32
2018-02-08T05:29:33.059Z,83.60
2018-02-08T05:32:01.341Z,83.59
2018-02-08T05:34:29.657Z,83.42
2018-02-08T05:36:58.687Z,83.52
2018-02-08T05:39:27.003Z,83.28
2018-02-08T05:41:55.305Z,83.16
2018-02-08T05:44:24.352Z,83.51
2018-02-08T05:46:52.664Z,83.23
2018-02-08T05:49:21.712Z,82.72
2018-02-08T05:51:50.040Z,82.41
2018-02-08T05:54:19.133Z,82.29
2018-02-08T05:56:47.412Z,82.43
2018-02-08T05:59:15.704Z,82.45
2018-02-08T06:01:44.013Z,82.44
2018-02-08T06:04:12.302Z,82.13
2018-02-08T06:06:40.592Z,82.42
2018-02-08T06:09:09.500Z,82.80
2018-02-08T06:11:37.792Z,82.33
2018-02-08T06:14:06.101Z,81.97
2018-02-08T06:16:34.417Z,82.04
2018-02-08T06:19:02.745Z,81.66
2018-02-08T06:21:31.037Z,81.31
2018-02-08T06:23:59.352Z,80.96
2018-02-08T06:26:27.637Z,81.21
2018-02-08T06:28:55.948Z,80.24
2018-02-08T06:31:24.588Z,79.94
2018-02-08T06:33:52.892Z,79.69
2018-02-08T06:36:21.195Z,79.36
2018-02-08T06:38:49.486Z,79.09
2018-02-08T06:41:17.782Z,78.55
2018-02-08T06:43:46.064Z,78.77
2018-02-08T06:46:14.365Z,79.24
2018-02-08T06:48:42.629Z,79.36
2018-02-08T06:51:10.959Z,78.89
2018-02-08T06:53:40.012Z,79.23
2018-02-08T06:56:08.313Z,79.29
2018-02-08T06:58:36.604Z,79.58
2018-02-08T07:01:04.894Z,78.76
2018-02-08T07:03:33.183Z,78.10
2018-02-08T07:06:01.499Z,77.98
2018-02-08T07:08:29.799Z,78.03
2018-02-08T07:10:58.109Z,78.11
2018-02-08T07:13:26.400Z,78.00
2018-02-08T07:15:54.706Z,77.60
2018-02-08T07:18:23.009Z,78.28
2018-02-08T07:20:51.294Z,78.35
2018-02-08T07:23:19.592Z,78.14
2018-02-08T07:25:48.678Z,78.87
2018-02-08T07:28:16.988Z,79.20
2018-02-08T07:30:45.274Z,79.47
2018-02-08T07:33:13.572Z,79.77
2018-02-08T07:35:41.870Z,79.36
2018-02-08T07:38:10.224Z,79.21
2018-02-08T07:40:39.858Z,79.52
2018-02-08T07:43:08.146Z,79.38
2018-02-08T07:45:36.441Z,79.68
2018-02-08T07:48:04.756Z,79.89
2018-02-08T07:50:33.048Z,79.82
2018-02-08T07:53:01.381Z,79.82
2018-02-08T07:55:30.439Z,79.20
2018-02-08T07:57:58.720Z,79.15
2018-02-08T08:00:27.049Z,79.09
2018-02-08T08:02:55.362Z,79.52
2018-02-08T08:05:23.994Z,79.37
2018-02-08T08:07:52.322Z,79.19
2018-02-08T08:10:20.666Z,79.72
2018-02-08T08:12:49.743Z,79.60
2018-02-08T08:15:18.052Z,79.54
2018-02-08T08:17:46.370Z,79.88
2018-02-08T08:20:14.635Z,79.67
2018-02-08T08:22:42.927Z,79.58
2018-02-08T08:25:11.221Z,79.39
2018-02-08T08:27:39.514Z,79.23
2018-02-08T08:30:08.402Z,79.24
2018-02-08T08:32:36.693Z,78.88
2018-02-08T08:35:05.731Z,78.67
2018-02-08T08:37:34.018Z,78.79
2018-02-08T08:40:02.306Z,79.12
2018-02-08T08:42:31.210Z,79.25
2018-02-08T08:44:59.550Z,78.89
2018-02-08T08:47:27.848Z,78.95
2018-02-08T08:49:56.160Z,78.02
2018-02-08T08:52:24.470Z,78.36
2018-02-08T08:54:52.793Z,78.40
2018-02-08T08:57:21.098Z,77.78
2018-02-08T08:59:49.382Z,77.48
2018-02-08T09:02:18.199Z,76.93
2018-02-08T09:04:46.491Z,77.26
2018-02-08T09:07:15.084Z,77.26
2018-02-08T09:09:43.366Z,77.13
2018-02-08T09:12:11.658Z,76.86
2018-02-08T09:14:40.015Z,76.66
2018-02-08T09:17:08.300Z,76.05
2018-02-08T09:19:36.618Z,75.87
2018-02-08T09:22:04.922Z,75.91
2018-02-08T09:24:33.202Z,75.53
2018-02-08T09:27:01.521Z,75.47
2018-02-08T09:29:29.807Z,75.39
2018-02-08T09:31:58.121Z,75.44
2018-02-08T09:34:27.182Z,75.55
2018-02-08T09:36:55.460Z,75.41
2018-02-08T09:39:23.790Z,75.21
2018-02-08T09:41:52.077Z,75.29
2018-02-08T09:44:20.363Z,75.31
2018-02-08T09:46:48.658Z,75.33
2018-02-08T09:49:16.932Z,75.40
2018-02-08T09:51:45.533Z,75.55
2018-02-08T09:54:13.832Z,75.31
2018-02-08T09:56:42.114Z,75.17
2018-02-08T09:59:10.971Z,74.77
2018-02-08T10:01:39.264Z,74.28
2018-02-08T10:04:07.552Z,73.56
2018-02-08T10:06:36.457Z,73.61
2018-02-08T10:09:04.806Z,73.04
2018-02-08T10:11:33.089Z,73.33
2018-02-08T10:14:01.407Z,73.10
2018-02-08T10:16:29.691Z,73.09
2018-02-08T10:18:57.972Z,72.79
2018-02-08T10:21:26.282Z,72.84
2018-02-08T10:23:54.561Z,72.81
2018-02-08T10:26:22.849Z,72.95
2018-02-08T10:28:51.115Z,72.89
2018-02-08T10:31:19.399Z,73.21
2018-02-08T10:33:47.696Z,72.95
2018-02-08T10:36:15.996Z,72.30
2018-02-08T10:38:45.082Z,72.30
2018-02-08T10:41:13.381Z,72.49
2018-02-08T10:43:42.457Z,72.21
2018-02-08T10:46:10.766Z,71.88
2018-02-08T10:48:39.071Z,71.74
2018-02-08T10:51:07.872Z,71.46
2018-02-08T10:53:36.139Z,71.32
2018-02-08T10:56:04.434Z,71.52
2018-02-08T10:58:32.732Z,71.99
2018-02-08T11:01:01.053Z,71.77
2018-02-08T11:03:29.375Z,71.97
2018-02-08T11:05:57.671Z,71.57
2018-02-08T11:08:25.948Z,71.38
2018-02-08T11:10:54.264Z,71.10
2018-02-08T11:13:22.525Z,70.87
2018-02-08T11:15:51.125Z,70.81
2018-02-08T11:18:19.413Z,70.73
2018-02-08T11:20:47.724Z,70.40
2018-02-08T11:23:16.031Z,70.17
2018-02-08T11:25:44.308Z,70.03
2018-02-08T11:28:12.613Z,69.72
2018-02-08T11:30:44.485Z,69.63
2018-02-08T11:33:25.619Z,69.61
2018-02-08T11:35:54.017Z,69.60
2018-02-08T11:38:22.273Z,69.48
2018-02-08T11:40:50.617Z,69.51
2018-02-08T11:43:18.892Z,68.58
2018-02-08T11:45:47.184Z,68.62
2018-02-08T11:48:15.487Z,68.42
2018-02-08T11:50:43.774Z,68.66
2018-02-08T11:53:12.110Z,68.08
2018-02-08T11:55:40.377Z,68.60
2018-02-08T11:58:08.674Z,68.64
2018-02-08T12:00:36.972Z,68.70
2018-02-08T12:03:05.268Z,69.59
2018-02-08T12:05:34.308Z,70.69
2018-02-08T12:08:02.605Z,69.61
2018-02-08T12:10:30.874Z,69.15
2018-02-08T12:12:59.139Z,69.47
2018-02-08T12:15:27.441Z,69.21
2018-02-08T12:17:55.734Z,70.87
2018-02-08T12:20:24.020Z,70.70
2018-02-08T12:22:52.298Z,67.07
2018-02-08T12:25:20.572Z,68.12
2018-02-08T12:27:48.892Z,68.69
2018-02-08T12:30:17.170Z,67.24
2018-02-08T12:32:45.490Z,67.04
2018-02-08T12:35:13.781Z,67.28
2018-02-08T12:37:42.044Z,66.34
2018-02-08T12:40:10.729Z,67.48
2018-02-08T12:42:39.005Z,67.09
2018-02-08T12:45:07.278Z,67.00
2018-02-08T12:47:35.582Z,67.72
2018-02-08T12:50:03.839Z,67.98
2018-02-08T12:52:32.150Z,67.14
2018-02-08T12:55:00.399Z,66.73
2018-02-08T12:57:28.695Z,67.20
2018-02-08T12:59:56.980Z,67.36
2018-02-08T13:02:25.265Z,66.78
2018-02-08T13:04:53.582Z,66.85
2018-02-08T13:07:22.724Z,66.98
2018-02-08T13:09:51.006Z,66.23
2018-02-08T13:12:19.293Z,66.17
2018-02-08T13:14:47.567Z,66.57
2018-02-08T13:17:16.612Z,66.00
2018-02-08T13:19:44.901Z,66.56
2018-02-08T13:22:13.186Z,66.44
2018-02-08T13:24:41.485Z,66.08
2018-02-08T13:27:09.754Z,67.40
2018-02-08T13:29:38.015Z,66.39
2018-02-08T13:32:08.721Z,66.70
2018-02-08T13:34:37.014Z,65.61
2018-02-08T13:37:05.317Z,65.03
2018-02-08T13:39:34.494Z,65.58
2018-02-08T13:42:09.765Z,66.23
2018-02-08T13:44:38.045Z,65.85
2018-02-08T13:47:09.413Z,65.89
2018-02-08T13:49:37.698Z,66.61
2018-02-08T13:52:12.217Z,65.43
2018-02-08T13:58:06.072Z,66.66
2018-02-08T14:00:40.164Z,65.30
2018-02-08T14:03:09.005Z,64.81
2018-02-08T14:05:37.274Z,66.40
2018-02-08T14:08:05.564Z,65.94
2018-02-08T14:10:34.342Z,65.85
2018-02-08T14:13:02.596Z,65.32
2018-02-08T14:15:30.875Z,65.12
2018-02-08T14:17:59.573Z,64.89
2018-02-08T14:20:27.857Z,65.20
2018-02-08T14:22:56.142Z,64.88
2018-02-08T14:25:24.445Z,64.36
2018-02-08T14:27:52.730Z,64.95
2018-02-08T14:30:21.805Z,65.33
2018-02-08T14:32:50.091Z,65.47
2018-02-08T14:35:18.382Z,65.04
2018-02-08T14:37:46.673Z,64.67
2018-02-08T14:40:14.992Z,63.20
2018-02-08T14:42:43.280Z,63.21
2018-02-08T14:45:12.000Z,61.67
2018-02-08T14:47:40.298Z,61.31
2018-02-08T14:50:08.607Z,61.04
2018-02-08T14:52:36.936Z,59.92
2018-02-08T14:55:05.198Z,61.31
2018-02-08T14:57:33.485Z,61.85
2018-02-08T15:00:02.552Z,61.84
2018-02-08T15:02:30.855Z,63.82
2018-02-08T15:04:59.623Z,64.01
2018-02-08T15:07:27.882Z,64.36
2018-02-08T15:09:56.184Z,64.96
2018-02-08T15:12:24.495Z,64.00
2018-02-08T15:14:53.552Z,64.70
2018-02-08T15:17:21.819Z,64.02
2018-02-08T15:19:50.185Z,63.01
2018-02-08T15:22:18.576Z,62.89
2018-02-08T15:24:46.850Z,62.74
2018-02-08T15:27:15.157Z,62.80
2018-02-08T15:29:43.429Z,62.76
2018-02-08T15:32:11.714Z,63.02
2018-02-08T15:34:40.005Z,63.46
2018-02-08T15:37:08.296Z,65.34
2018-02-08T15:39:37.350Z,65.09
2018-02-08T15:42:05.627Z,62.99
2018-02-08T15:44:34.284Z,63.69
2018-02-08T15:47:03.005Z,63.75
2018-02-08T15:49:31.293Z,66.21
2018-02-08T15:51:59.578Z,65.58
2018-02-08T15:54:27.828Z,65.49
2018-02-08T15:56:56.090Z,65.18
2018-02-08T15:59:24.408Z,64.10
2018-02-08T16:01:52.692Z,64.91
2018-02-08T16:04:21.363Z,65.85
2018-02-08T16:06:49.625Z,65.74
2018-02-08T16:09:17.921Z,66.03
2018-02-08T16:11:46.215Z,65.47
2018-02-08T16:14:14.513Z,66.39
2018-02-08T16:16:43.558Z,66.66
2018-02-08T16:19:11.848Z,66.97
2018-02-08T16:21:40.114Z,68.04
2018-02-08T16:24:08.437Z,68.73
2018-02-08T16:26:37.484Z,68.75
2018-02-08T16:29:05.759Z,69.44
2018-02-08T16:31:34.025Z,69.24
2018-02-08T16:34:02.323Z,70.69
2018-02-08T16:36:30.635Z,70.27
2018-02-08T16:38:58.955Z,70.58
2018-02-08T16:41:27.297Z,71.46
2018-02-08T16:43:55.610Z,72.32
2018-02-08T16:46:23.902Z,72.22
2018-02-08T16:48:52.212Z,72.86
2018-02-08T16:51:20.630Z,72.82
2018-02-08T16:53:50.706Z,73.23
2018-02-08T16:56:19.102Z,73.20
2018-02-08T16:58:47.427Z,72.82
2018-02-08T17:01:15.870Z,73.45
2018-02-08T17:03:44.996Z,73.70
2018-02-08T17:06:13.381Z,73.54
2018-02-08T17:08:41.714Z,74.36
2018-02-08T17:11:10.205Z,75.09
2018-02-08T17:13:38.531Z,74.88
2018-02-08T17:16:06.866Z,74.39
2018-02-08T17:18:35.214Z,74.83
2018-02-08T17:21:03.511Z,74.95
2018-02-08T17:23:31.900Z,74.93
2018-02-08T17:26:00.385Z,75.26
2018-02-08T17:28:28.764Z,75.67
2018-02-08T17:30:58.081Z,75.87
2018-02-08T17:33:27.210Z,75.79
2018-02-08T17:35:55.646Z,76.32
2018-02-08T17:38:24.013Z,76.14
2018-02-08T17:40:52.345Z,75.75
2018-02-08T17:43:20.777Z,75.49
2018-02-08T17:45:49.550Z,75.79
2018-02-08T17:48:17.912Z,75.62
2018-02-08T17:50:46.210Z,75.65
2018-02-08T17:53:14.517Z,76.37
2018-02-08T17:55:42.850Z,76.98
2018-02-08T17:58:11.120Z,77.61
2018-02-08T18:00:39.691Z,77.52
2018-02-08T18:03:07.997Z,77.54
2018-02-08T18:05:36.275Z,77.62
2018-02-08T18:08:04.600Z,77.83
2018-02-08T18:10:32.859Z,77.92
2018-02-08T18:13:02.125Z,78.13
2018-02-08T18:15:30.813Z,78.40
2018-02-08T18:17:59.125Z,78.42
2018-02-08T18:20:27.425Z,78.41
2018-02-08T18:22:55.730Z,78.03
2018-02-08T18:25:24.046Z,78.34
2018-02-08T18:27:52.344Z,78.78
2018-02-08T18:30:21.438Z,78.70
2018-02-08T18:32:49.715Z,78.86
2018-02-08T18:35:18.798Z,78.25
2018-02-08T18:37:47.116Z,78.42
2018-02-08T18:40:15.390Z,78.47
2018-02-08T18:42:43.749Z,78.61
2018-02-08T18:45:12.793Z,78.79
2018-02-08T18:47:41.095Z,79.11
2018-02-08T18:50:09.378Z,79.67
2018-02-08T18:52:37.692Z,79.95
2018-02-08T18:55:05.962Z,79.70
2018-02-08T18:57:34.248Z,79.46
2018-02-08T19:00:02.569Z,78.95
2018-02-08T19:02:30.857Z,79.50
2018-02-08T19:04:59.145Z,79.41
2018-02-08T19:07:27.460Z,79.25
2018-02-08T19:09:56.548Z,78.80
2018-02-08T19:12:24.853Z,79.08
2018-02-08T19:14:53.136Z,78.88
2018-02-08T19:17:21.416Z,78.67
2018-02-08T19:19:50.150Z,79.26
2018-02-08T19:22:18.440Z,79.62
2018-02-08T19:24:46.716Z,79.80
2018-02-08T19:27:15.026Z,79.73
2018-02-08T19:29:43.304Z,80.00
2018-02-08T19:32:11.603Z,79.80
2018-02-08T19:34:39.890Z,79.95
2018-02-08T19:37:08.253Z,80.20
2018-02-08T19:39:36.574Z,80.20
2018-02-08T19:42:04.876Z,79.87
2018-02-08T19:44:33.177Z,79.80
2018-02-08T19:47:01.453Z,80.09
2018-02-08T19:49:30.526Z,79.69
2018-02-08T19:51:58.847Z,80.03
2018-02-08T19:54:27.149Z,79.76
2018-02-08T19:56:55.435Z,80.12
2018-02-08T19:59:23.760Z,80.04
2018-02-08T20:01:52.032Z,79.87
2018-02-08T20:04:21.108Z,80.25
2018-02-08T20:06:49.416Z,78.79
2018-02-08T20:09:17.694Z,78.02
2018-02-08T20:11:45.967Z,78.38
2018-02-08T20:14:20.183Z,78.48
2018-02-08T20:16:48.459Z,78.41
2018-02-08T20:19:16.766Z,78.46
2018-02-08T20:21:45.862Z,78.95
2018-02-08T20:24:14.148Z,79.82
2018-02-08T20:26:42.493Z,80.54
2018-02-08T20:29:11.324Z,80.63
2018-02-08T20:31:39.600Z,80.30
2018-02-08T20:34:07.902Z,80.30
2018-02-08T20:36:42.682Z,80.54
2018-02-08T20:39:10.956Z,80.45
2018-02-08T20:41:39.282Z,80.16
2018-02-08T20:44:07.623Z,79.65
2018-02-08T20:46:36.336Z,79.70
2018-02-08T20:49:05.514Z,80.16
2018-02-08T20:51:33.825Z,80.59
2018-02-08T20:54:02.118Z,80.42
2018-02-08T20:56:30.420Z,80.19
2018-02-08T20:58:58.714Z,80.17
2018-02-08T21:01:27.013Z,80.22
2018-02-08T21:03:56.076Z,80.72
2018-02-08T21:06:24.348Z,80.48
2018-02-08T21:08:53.413Z,80.60
2018-02-08T21:11:21.682Z,80.55
2018-02-08T21:13:50.039Z,80.36
2018-02-08T21:16:18.350Z,80.53
2018-02-08T21:18:46.621Z,80.56
2018-02-08T21:21:15.314Z,80.63
2018-02-08T21:23:43.705Z,80.21
2018-02-08T21:26:12.010Z,78.97
2018-02-08T21:28:41.349Z,78.78
2018-02-08T21:31:09.708Z,78.72
2018-02-08T21:33:38.942Z,80.25
2018-02-08T21:36:07.231Z,80.72
2018-02-08T21:38:35.524Z,80.37
2018-02-08T21:41:03.831Z,80.21
2018-02-08T21:43:32.134Z,79.68
2018-02-08T21:46:03.767Z,79.77
2018-02-08T21:48:32.812Z,80.28
2018-02-08T21:51:01.112Z,80.02
2018-02-08T21:53:29.404Z,79.16
2018-02-08T21:55:58.512Z,78.73
2018-02-08T21:58:27.585Z,79.11
2018-02-08T22:00:55.888Z,79.07
2018-02-08T22:03:24.950Z,79.02
2018-02-08T22:05:53.262Z,78.98
2018-02-08T22:08:22.324Z,78.91
2018-02-08T22:10:50.620Z,79.27
2018-02-08T22:13:18.891Z,79.24
2018-02-08T22:15:47.195Z,79.01
2018-02-08T22:18:15.549Z,78.74
2018-02-08T22:20:43.889Z,78.66
2018-02-08T22:23:12.163Z,78.67
2018-02-08T22:25:40.454Z,79.37
2018-02-08T22:28:08.715Z,78.84
2018-02-08T22:30:37.024Z,78.77
2018-02-08T22:33:05.321Z,78.71
2018-02-08T22:35:33.622Z,78.88
2018-02-08T22:38:01.900Z,79.07
2018-02-08T22:40:30.197Z,79.00
2018-02-08T22:42:58.510Z,78.98
2018-02-08T22:45:26.804Z,79.17
2018-02-08T22:47:55.098Z,79.50
2018-02-08T22:50:24.168Z,80.11
2018-02-08T22:52:52.437Z,80.45
2018-02-08T22:55:20.738Z,79.85
2018-02-08T22:57:49.017Z,79.99
2018-02-08T23:00:18.075Z,79.42
2018-02-08T23:02:46.351Z,79.29
2018-02-08T23:05:14.671Z,79.36
2018-02-08T23:07:42.967Z,80.10
2018-02-08T23:10:12.028Z,80.71
2018-02-08T23:12:40.315Z,81.13
2018-02-08T23:15:08.595Z,81.05
2018-02-08T23:17:36.900Z,81.27
2018-02-08T23:20:05.987Z,81.49
2018-02-08T23:22:35.030Z,81.18
2018-02-08T23:25:03.571Z,80.95
2018-02-08T23:27:31.871Z,81.58
2018-02-08T23:30:00.164Z,81.87
2018-02-08T23:32:28.454Z,81.83
2018-02-08T23:34:56.744Z,82.00
2018-02-08T23:37:25.331Z,82.19
2018-02-08T23:39:53.620Z,82.38
2018-02-08T23:42:21.886Z,82.25
2018-02-08T23:44:50.215Z,82.73
2018-02-08T23:47:18.503Z,82.38
2018-02-08T23:49:46.818Z,82.88
2018-02-08T23:52:15.100Z,82.87
2018-02-08T23:54:43.396Z,82.38
2018-02-08T23:57:11.714Z,82.51
2018-02-08T23:59:40.000Z,82.79
